createdAt,value
2018-05-24T00:02:01.991Z,19.64
2018-05-24T00:04:29.486Z,19.60
2018-05-24T00:06:56.959Z,19.55
2018-05-24T00:09:24.458Z,19.51
2018-05-24T00:11:51.909Z,19.41
2018-05-24T00:14:19.416Z,19.39
2018-05-24T00:16:46.896Z,19.46
2018-05-24T00:19:14.378Z,19.39
2018-05-24T00:21:41.871Z,19.34
2018-05-24T00:24:09.339Z,19.24
2018-05-24T00:26:36.816Z,19.18
2018-05-24T00:29:04.320Z,19.10
2018-05-24T00:31:31.794Z,19.05
2018-05-24T00:33:59.304Z,19.04
2018-05-24T00:36:26.854Z,18.98
2018-05-24T00:38:54.317Z,18.94
2018-05-24T00:41:21.779Z,19.01
2018-05-24T00:43:49.252Z,19.05
2018-05-24T00:46:16.761Z,18.95
2018-05-24T00:48:44.226Z,19.00
2018-05-24T00:51:11.709Z,18.99
2018-05-24T00:53:39.187Z,18.97
2018-05-24T00:56:06.673Z,18.93
2018-05-24T00:58:34.210Z,19.00
2018-05-24T01:01:02.562Z,18.94
2018-05-24T01:03:30.022Z,18.95
2018-05-24T01:05:57.522Z,19.01
2018-05-24T01:08:24.986Z,18.97
2018-05-24T01:10:52.450Z,18.97
2018-05-24T01:13:19.941Z,18.91
2018-05-24T01:15:47.489Z,18.84
2018-05-24T01:18:14.947Z,18.82
2018-05-24T01:20:42.424Z,18.74
2018-05-24T01:23:09.926Z,18.74
2018-05-24T01:25:37.414Z,18.69
2018-05-24T01:28:04.940Z,18.76
2018-05-24T01:30:32.434Z,18.71
2018-05-24T01:32:59.902Z,18.68
2018-05-24T01:35:27.379Z,18.66
2018-05-24T01:37:54.878Z,18.64
2018-05-24T01:40:22.428Z,18.70
2018-05-24T01:42:49.920Z,18.74
2018-05-24T01:45:17.407Z,18.65
2018-05-24T01:47:44.878Z,18.63
2018-05-24T01:50:12.431Z,18.52
2018-05-24T01:52:39.892Z,18.49
2018-05-24T01:55:07.370Z,18.50
2018-05-24T01:57:34.883Z,18.47
2018-05-24T02:00:02.369Z,18.41
2018-05-24T02:02:29.843Z,18.49
2018-05-24T02:04:57.384Z,18.52
2018-05-24T02:07:24.902Z,18.44
2018-05-24T02:09:52.854Z,18.42
2018-05-24T02:12:20.354Z,18.40
2018-05-24T02:14:47.845Z,18.43
2018-05-24T02:17:15.312Z,18.54
2018-05-24T02:19:42.806Z,18.39
2018-05-24T02:22:11.038Z,18.28
2018-05-24T02:24:38.524Z,18.28
2018-05-24T02:27:07.557Z,18.31
2018-05-24T02:29:35.056Z,18.21
2018-05-24T02:32:02.610Z,18.22
2018-05-24T02:34:30.140Z,18.23
2018-05-24T02:36:58.208Z,18.19
2018-05-24T02:39:25.714Z,18.07
2018-05-24T02:41:53.246Z,18.01
2018-05-24T02:44:20.722Z,18.02
2018-05-24T02:46:48.238Z,18.01
2018-05-24T02:49:15.806Z,18.10
2018-05-24T02:51:43.288Z,18.10
2018-05-24T02:54:10.793Z,18.12
2018-05-24T02:56:38.290Z,18.21
2018-05-24T02:59:05.766Z,18.22
2018-05-24T03:01:33.359Z,18.17
2018-05-24T03:04:00.815Z,18.15
2018-05-24T03:06:28.320Z,18.14
2018-05-24T03:08:55.776Z,18.09
2018-05-24T03:11:23.287Z,18.05
2018-05-24T03:13:50.791Z,18.03
2018-05-24T03:16:18.275Z,18.01
2018-05-24T03:18:45.787Z,18.03
2018-05-24T03:21:13.289Z,18.14
2018-05-24T03:23:40.805Z,18.08
2018-05-24T03:26:08.292Z,18.08
2018-05-24T03:28:35.800Z,18.12
2018-05-24T03:31:03.323Z,18.15
2018-05-24T03:33:30.840Z,18.16
2018-05-24T03:35:58.304Z,18.21
2018-05-24T03:38:25.806Z,18.27
2018-05-24T03:40:53.313Z,18.40
2018-05-24T03:43:20.811Z,18.49
2018-05-24T03:45:48.272Z,18.53
2018-05-24T03:48:15.769Z,18.58
2018-05-24T03:50:43.251Z,18.61
2018-05-24T03:53:10.729Z,18.65
2018-05-24T03:55:38.207Z,18.86
2018-05-24T03:58:05.732Z,18.93
2018-05-24T04:00:44.815Z,18.90
2018-05-24T04:03:24.118Z,18.86
2018-05-24T04:05:51.595Z,18.87
2018-05-24T04:08:19.059Z,19.00
2018-05-24T04:10:46.547Z,18.94
2018-05-24T04:13:14.040Z,19.00
2018-05-24T04:15:41.520Z,19.17
2018-05-24T04:18:09.006Z,19.21
2018-05-24T04:20:36.531Z,19.40
2018-05-24T04:23:04.247Z,19.34
2018-05-24T04:25:31.767Z,19.45
2018-05-24T04:27:59.345Z,19.38
2018-05-24T04:30:26.846Z,19.39
2018-05-24T04:32:54.413Z,19.40
2018-05-24T04:35:21.890Z,19.37
2018-05-24T04:37:49.363Z,19.38
2018-05-24T04:40:16.861Z,19.46
2018-05-24T04:42:44.356Z,19.52
2018-05-24T04:45:11.829Z,19.61
2018-05-24T04:47:39.311Z,19.59
2018-05-24T04:50:06.860Z,19.70
2018-05-24T04:52:34.410Z,19.71
2018-05-24T04:55:01.902Z,19.75
2018-05-24T04:57:29.423Z,19.92
2018-05-24T04:59:56.882Z,19.96
2018-05-24T05:02:24.359Z,19.96
2018-05-24T05:04:51.941Z,19.98
2018-05-24T05:07:19.445Z,20.11
2018-05-24T05:09:46.979Z,20.31
2018-05-24T05:12:14.491Z,20.44
2018-05-24T05:14:41.968Z,20.56
2018-05-24T05:17:09.474Z,20.71
2018-05-24T05:19:36.981Z,20.86
2018-05-24T05:22:04.447Z,21.00
2018-05-24T05:24:31.911Z,21.16
2018-05-24T05:26:59.409Z,21.07
2018-05-24T05:29:26.873Z,21.22
2018-05-24T05:31:54.345Z,21.18
2018-05-24T05:34:21.822Z,21.33
2018-05-24T05:36:49.283Z,21.51
2018-05-24T05:39:16.765Z,21.56
2018-05-24T05:41:44.270Z,21.79
2018-05-24T05:44:11.724Z,22.01
2018-05-24T05:46:39.185Z,22.16
2018-05-24T05:49:06.662Z,22.29
2018-05-24T05:51:34.109Z,22.54
2018-05-24T05:54:01.573Z,22.63
2018-05-24T05:56:29.050Z,22.80
2018-05-24T05:58:56.538Z,23.10
2018-05-24T06:01:24.015Z,23.16
2018-05-24T06:03:51.517Z,23.13
2018-05-24T06:06:18.979Z,23.06
2018-05-24T06:08:46.448Z,23.20
2018-05-24T06:11:13.931Z,23.31
2018-05-24T06:13:41.392Z,23.40
2018-05-24T06:16:08.847Z,23.58
2018-05-24T06:18:36.341Z,23.51
2018-05-24T06:21:03.806Z,23.74
2018-05-24T06:23:31.266Z,23.83
2018-05-24T06:25:58.750Z,23.92
2018-05-24T06:28:26.285Z,24.11
2018-05-24T06:30:53.691Z,24.06
2018-05-24T06:33:21.164Z,24.16
2018-05-24T06:35:48.614Z,24.20
2018-05-24T06:38:16.072Z,24.45
2018-05-24T06:40:43.557Z,24.67
2018-05-24T06:43:11.039Z,24.56
2018-05-24T06:45:38.537Z,24.53
2018-05-24T06:48:06.025Z,24.45
2018-05-24T06:50:33.502Z,24.49
2018-05-24T06:53:00.984Z,24.39
2018-05-24T06:55:28.447Z,24.40
2018-05-24T06:57:55.936Z,24.51
2018-05-24T07:00:23.446Z,24.65
2018-05-24T07:02:50.908Z,24.90
2018-05-24T07:05:18.378Z,24.86
2018-05-24T07:07:45.862Z,24.82
2018-05-24T07:10:13.350Z,24.92
2018-05-24T07:12:40.821Z,25.01
2018-05-24T07:15:08.329Z,24.96
2018-05-24T07:17:35.810Z,25.04
2018-05-24T07:20:03.300Z,25.19
2018-05-24T07:22:30.774Z,25.10
2018-05-24T07:24:58.320Z,25.04
2018-05-24T07:27:25.805Z,25.17
2018-05-24T07:29:53.313Z,25.22
2018-05-24T07:32:20.767Z,25.40
2018-05-24T07:34:48.231Z,25.44
2018-05-24T07:37:15.738Z,25.38
2018-05-24T07:39:43.286Z,25.56
2018-05-24T07:42:10.704Z,25.63
2018-05-24T07:44:38.207Z,25.65
2018-05-24T07:47:05.675Z,25.62
2018-05-24T07:49:33.202Z,25.60
2018-05-24T07:52:00.743Z,25.47
2018-05-24T07:54:28.226Z,25.40
2018-05-24T07:56:55.680Z,25.48
2018-05-24T07:59:23.210Z,25.51
2018-05-24T08:01:50.674Z,25.40
2018-05-24T08:04:18.144Z,25.55
2018-05-24T08:06:45.634Z,25.65
2018-05-24T08:09:13.119Z,25.81
2018-05-24T08:11:40.604Z,26.03
2018-05-24T08:14:08.077Z,26.16
2018-05-24T08:16:35.590Z,26.25
2018-05-24T08:19:03.078Z,26.12
2018-05-24T08:21:30.559Z,26.18
2018-05-24T08:23:58.079Z,25.90
2018-05-24T08:26:25.564Z,25.97
2018-05-24T08:28:53.031Z,26.05
2018-05-24T08:31:20.487Z,26.11
2018-05-24T08:33:47.957Z,26.20
2018-05-24T08:36:15.431Z,26.38
2018-05-24T08:38:42.905Z,26.57
2018-05-24T08:41:10.379Z,26.44
2018-05-24T08:43:37.852Z,26.43
2018-05-24T08:46:05.323Z,26.29
2018-05-24T08:48:32.810Z,26.24
2018-05-24T08:51:00.282Z,26.60
2018-05-24T08:53:27.808Z,26.97
2018-05-24T08:55:55.250Z,27.53
2018-05-24T08:58:22.714Z,27.76
2018-05-24T09:00:50.176Z,27.96
2018-05-24T09:03:17.677Z,27.95
2018-05-24T09:05:45.159Z,27.82
2018-05-24T09:08:12.627Z,28.24
2018-05-24T09:10:40.113Z,28.36
2018-05-24T09:13:07.591Z,28.50
2018-05-24T09:15:35.054Z,28.37
2018-05-24T09:18:02.546Z,28.38
2018-05-24T09:20:30.081Z,28.37
2018-05-24T09:22:57.542Z,28.68
2018-05-24T09:25:25.102Z,28.72
2018-05-24T09:27:52.704Z,28.64
2018-05-24T09:30:20.189Z,28.73
2018-05-24T09:32:47.738Z,28.77
2018-05-24T09:35:15.207Z,28.84
2018-05-24T09:37:43.400Z,28.93
2018-05-24T09:40:10.905Z,29.05
2018-05-24T09:42:38.390Z,29.04
2018-05-24T09:45:05.919Z,29.20
2018-05-24T09:47:33.457Z,29.18
2018-05-24T09:50:02.460Z,29.41
2018-05-24T09:52:29.972Z,29.59
2018-05-24T09:54:57.483Z,29.90
2018-05-24T09:57:24.947Z,29.92
2018-05-24T09:59:52.426Z,30.02
2018-05-24T10:02:19.938Z,30.06
2018-05-24T10:04:47.402Z,30.27
2018-05-24T10:07:14.901Z,30.27
2018-05-24T10:09:42.374Z,30.18
2018-05-24T10:12:09.947Z,30.23
2018-05-24T10:14:37.463Z,30.40
2018-05-24T10:17:04.970Z,30.50
2018-05-24T10:19:32.462Z,30.73
2018-05-24T10:22:00.456Z,30.65
2018-05-24T10:24:27.952Z,30.70
2018-05-24T10:26:55.420Z,30.62
2018-05-24T10:29:22.919Z,30.72
2018-05-24T10:31:50.374Z,30.58
2018-05-24T10:34:17.851Z,30.58
2018-05-24T10:36:45.313Z,31.01
2018-05-24T10:39:12.806Z,31.61
2018-05-24T10:41:40.285Z,31.85
2018-05-24T10:44:07.754Z,32.43
2018-05-24T10:46:35.225Z,32.66
2018-05-24T10:49:02.696Z,32.68
2018-05-24T10:51:30.173Z,32.13
2018-05-24T10:53:57.682Z,32.16
2018-05-24T10:56:25.164Z,31.95
2018-05-24T10:58:52.636Z,32.14
2018-05-24T11:01:20.106Z,32.71
2018-05-24T11:03:47.592Z,32.49
2018-05-24T11:06:15.075Z,32.13
2018-05-24T11:08:42.555Z,32.30
2018-05-24T11:11:10.015Z,32.27
2018-05-24T11:13:37.487Z,32.60
2018-05-24T11:16:05.013Z,32.22
2018-05-24T11:18:32.502Z,32.26
2018-05-24T11:21:00.026Z,32.46
2018-05-24T11:23:27.491Z,32.26
2018-05-24T11:25:54.966Z,32.09
2018-05-24T11:28:22.504Z,31.93
2018-05-24T11:30:50.025Z,31.63
2018-05-24T11:33:17.506Z,31.46
2018-05-24T11:35:45.065Z,31.72
2018-05-24T11:38:12.571Z,31.89
2018-05-24T11:40:40.032Z,32.18
2018-05-24T11:43:07.680Z,32.30
2018-05-24T11:45:35.086Z,32.12
2018-05-24T11:48:02.545Z,32.19
2018-05-24T11:50:30.032Z,32.24
2018-05-24T11:52:57.526Z,32.11
2018-05-24T11:55:24.986Z,31.85
2018-05-24T11:57:52.472Z,31.55
2018-05-24T12:00:19.944Z,31.39
2018-05-24T12:02:47.407Z,31.11
2018-05-24T12:05:14.884Z,30.44
2018-05-24T12:07:42.351Z,29.76
2018-05-24T12:10:09.865Z,29.47
2018-05-24T12:12:37.329Z,29.11
2018-05-24T12:15:04.813Z,28.71
2018-05-24T12:17:32.279Z,28.55
2018-05-24T12:19:59.810Z,28.48
2018-05-24T12:22:27.323Z,28.11
2018-05-24T12:24:54.801Z,28.09
2018-05-24T12:27:22.278Z,28.10
2018-05-24T12:29:49.750Z,28.39
2018-05-24T12:32:17.224Z,28.44
2018-05-24T12:34:44.755Z,28.41
2018-05-24T12:37:12.255Z,28.24
2018-05-24T12:39:39.703Z,28.23
2018-05-24T12:42:07.183Z,28.17
2018-05-24T12:44:34.686Z,28.45
2018-05-24T12:47:02.157Z,28.47
2018-05-24T12:49:29.641Z,28.48
2018-05-24T12:51:57.105Z,28.52
2018-05-24T12:54:24.560Z,28.34
2018-05-24T12:56:52.051Z,28.24
2018-05-24T12:59:19.525Z,28.09
2018-05-24T13:01:47.001Z,28.19
2018-05-24T13:04:14.532Z,28.02
2018-05-24T13:06:41.940Z,28.03
2018-05-24T13:09:09.411Z,27.93
2018-05-24T13:11:36.882Z,27.66
2018-05-24T13:14:04.362Z,27.33
2018-05-24T13:16:31.850Z,27.07
2018-05-24T13:18:59.322Z,26.91
2018-05-24T13:21:26.834Z,26.81
2018-05-24T13:23:54.295Z,26.59
2018-05-24T13:26:21.786Z,26.53
2018-05-24T13:28:49.246Z,26.47
2018-05-24T13:31:16.706Z,26.39
2018-05-24T13:33:44.191Z,26.26
2018-05-24T13:36:11.681Z,26.17
2018-05-24T13:38:39.155Z,25.57
2018-05-24T13:41:06.669Z,24.92
2018-05-24T13:43:34.148Z,24.50
2018-05-24T13:46:01.643Z,24.20
2018-05-24T13:48:29.133Z,23.88
2018-05-24T13:50:56.573Z,23.55
2018-05-24T13:53:24.050Z,23.29
2018-05-24T13:55:51.539Z,22.95
2018-05-24T13:58:18.990Z,22.76
2018-05-24T14:00:46.462Z,22.70
2018-05-24T14:03:13.943Z,22.59
2018-05-24T14:05:41.428Z,22.33
2018-05-24T14:08:08.930Z,22.25
2018-05-24T14:10:36.450Z,22.20
2018-05-24T14:13:03.910Z,22.18
2018-05-24T14:15:31.357Z,22.13
2018-05-24T14:17:58.827Z,22.21
2018-05-24T14:20:26.291Z,22.14
2018-05-24T14:22:53.743Z,21.84
2018-05-24T14:25:21.769Z,21.83
2018-05-24T14:27:49.257Z,21.85
2018-05-24T14:30:17.572Z,21.91
2018-05-24T14:32:45.057Z,21.88
2018-05-24T14:35:12.517Z,21.89
2018-05-24T14:37:39.974Z,21.95
2018-05-24T14:40:07.483Z,21.99
2018-05-24T14:42:34.992Z,21.93
2018-05-24T14:45:03.164Z,21.93
2018-05-24T14:47:30.677Z,22.08
2018-05-24T14:49:58.187Z,22.24
2018-05-24T14:52:25.641Z,22.44
2018-05-24T14:54:53.101Z,22.56
2018-05-24T14:57:20.596Z,22.75
2018-05-24T14:59:48.041Z,22.98
2018-05-24T15:02:15.568Z,23.23
2018-05-24T15:04:43.030Z,23.45
2018-05-24T15:07:10.489Z,23.50
2018-05-24T15:09:37.979Z,23.75
2018-05-24T15:12:05.519Z,24.06
2018-05-24T15:14:32.999Z,24.34
2018-05-24T15:17:00.474Z,24.62
2018-05-24T15:19:28.023Z,25.40
2018-05-24T15:21:55.502Z,25.92
2018-05-24T15:24:22.978Z,26.46
2018-05-24T15:26:50.438Z,27.06
2018-05-24T15:29:17.914Z,27.66
2018-05-24T15:31:45.414Z,28.99
2018-05-24T15:34:12.888Z,30.66
2018-05-24T15:36:40.375Z,31.89
2018-05-24T15:39:07.857Z,33.24
2018-05-24T15:44:09.564Z,35.06
2018-05-24T15:46:37.042Z,34.78
2018-05-24T15:49:04.666Z,33.85
2018-05-24T15:51:32.210Z,33.81
2018-05-24T15:53:59.708Z,34.41
2018-05-24T15:56:28.029Z,34.44
2018-05-24T15:58:55.510Z,33.15
2018-05-24T16:01:22.965Z,32.45
2018-05-24T16:03:54.551Z,31.83
2018-05-24T16:06:22.267Z,31.57
2018-05-24T16:08:51.282Z,31.18
2018-05-24T16:11:19.683Z,30.79
2018-05-24T16:13:47.359Z,30.53
2018-05-24T16:16:14.954Z,30.43
2018-05-24T16:18:42.426Z,30.25
2018-05-24T16:21:11.056Z,29.95
2018-05-24T16:23:38.557Z,29.65
2018-05-24T16:26:06.045Z,29.32
2018-05-24T16:28:33.546Z,28.92
2018-05-24T16:31:01.027Z,28.62
2018-05-24T16:33:28.515Z,28.37
2018-05-24T16:35:56.046Z,27.91
2018-05-24T16:38:23.646Z,27.38
2018-05-24T16:40:51.155Z,27.09
2018-05-24T16:43:18.624Z,26.90
2018-05-24T16:45:46.106Z,26.71
2018-05-24T16:48:13.574Z,26.52
2018-05-24T16:50:41.076Z,26.26
2018-05-24T16:53:08.649Z,25.97
2018-05-24T16:55:36.188Z,25.81
2018-05-24T16:58:03.718Z,25.71
2018-05-24T17:00:31.303Z,25.60
2018-05-24T17:02:58.773Z,25.53
2018-05-24T17:05:26.268Z,25.40
2018-05-24T17:07:53.744Z,25.26
2018-05-24T17:10:22.027Z,25.11
2018-05-24T17:12:58.102Z,24.90
2018-05-24T17:15:25.627Z,24.69
2018-05-24T17:18:03.107Z,24.49
2018-05-24T17:36:43.368Z,23.56
2018-05-24T17:39:10.862Z,23.46
2018-05-24T17:41:38.391Z,23.54
2018-05-24T17:44:05.884Z,23.53
2018-05-24T17:46:33.367Z,23.44
2018-05-24T17:49:00.920Z,23.50
2018-05-24T17:51:28.428Z,23.30
2018-05-24T17:53:56.130Z,23.08
2018-05-24T17:56:23.700Z,23.02
2018-05-24T17:59:08.148Z,22.91
2018-05-24T18:01:36.508Z,22.89
2018-05-24T18:04:05.629Z,22.88
2018-05-24T18:06:33.129Z,22.79
2018-05-24T18:09:00.670Z,22.60
2018-05-24T18:11:28.194Z,22.47
2018-05-24T18:13:55.691Z,22.29
2018-05-24T18:16:23.261Z,22.19
2018-05-24T18:18:50.749Z,22.16
2018-05-24T18:21:18.251Z,22.08
2018-05-24T18:23:46.047Z,22.13
2018-05-24T18:26:13.662Z,22.13
2018-05-24T18:28:41.151Z,22.18
2018-05-24T18:31:08.695Z,22.08
2018-05-24T18:33:36.190Z,21.98
2018-05-24T18:36:04.123Z,21.91
2018-05-24T18:38:31.629Z,21.82
2018-05-24T18:41:04.297Z,21.75
2018-05-24T18:46:04.944Z,21.82
2018-05-24T18:48:32.442Z,21.89
2018-05-24T18:51:00.081Z,21.86
2018-05-24T18:53:27.630Z,21.82
2018-05-24T18:55:56.522Z,21.69
2018-05-24T18:58:24.139Z,21.64
2018-05-24T19:00:51.697Z,21.53
2018-05-24T19:03:19.218Z,21.53
2018-05-24T19:05:46.736Z,21.61
2018-05-24T19:08:14.313Z,21.46
2018-05-24T19:10:41.880Z,21.23
2018-05-24T19:13:09.463Z,21.02
2018-05-24T19:15:37.020Z,21.00
2018-05-24T19:18:04.575Z,20.95
2018-05-24T19:20:32.153Z,20.74
2018-05-24T19:22:59.657Z,20.64
2018-05-24T19:25:27.317Z,20.65
2018-05-24T19:27:54.952Z,20.47
2018-05-24T19:30:23.439Z,20.23
2018-05-24T19:32:51.198Z,20.14
2018-05-24T19:35:24.638Z,20.01
2018-05-24T19:37:52.236Z,19.89
2018-05-24T19:40:20.613Z,19.89
2018-05-24T19:42:48.190Z,19.91
2018-05-24T19:45:15.734Z,19.88
2018-05-24T19:47:43.358Z,19.95
2018-05-24T19:50:10.916Z,19.92
2018-05-24T19:52:39.938Z,19.86
2018-05-24T19:55:09.229Z,19.82
2018-05-24T19:57:36.874Z,19.75
2018-05-24T20:00:04.540Z,19.71
2018-05-24T20:02:38.193Z,19.63
2018-05-24T20:05:19.540Z,19.46
2018-05-24T20:07:48.052Z,19.37
2018-05-24T20:10:17.142Z,19.31
2018-05-24T20:12:44.691Z,19.35
2018-05-24T20:15:12.221Z,19.28
2018-05-24T20:17:40.001Z,19.26
2018-05-24T20:20:07.550Z,19.19
2018-05-24T20:22:35.216Z,19.18
2018-05-24T20:25:02.778Z,19.15
2018-05-24T20:27:30.258Z,19.15
2018-05-24T20:29:57.833Z,19.21
2018-05-24T20:32:25.323Z,19.20
2018-05-24T20:34:52.840Z,19.17
2018-05-24T20:37:20.727Z,19.05
2018-05-24T20:39:48.250Z,19.12
2018-05-24T20:42:15.728Z,19.11
2018-05-24T20:44:43.217Z,19.10
2018-05-24T20:47:11.274Z,19.05
2018-05-24T20:49:38.766Z,18.96
2018-05-24T20:52:06.321Z,18.89
2018-05-24T20:54:34.202Z,18.85
2018-05-24T20:57:01.715Z,18.84
2018-05-24T20:59:29.211Z,18.84
2018-05-24T21:01:56.830Z,18.73
2018-05-24T21:04:24.401Z,18.65
2018-05-24T21:06:56.909Z,18.62
2018-05-24T21:09:24.581Z,18.67
2018-05-24T21:11:53.586Z,18.78
2018-05-24T21:14:21.115Z,18.69
2018-05-24T21:16:49.045Z,18.61
2018-05-24T21:19:16.550Z,18.55
2018-05-24T21:21:44.110Z,18.53
2018-05-24T21:24:11.613Z,18.49
2018-05-24T21:26:40.048Z,18.55
2018-05-24T21:29:08.100Z,18.48
2018-05-24T21:31:35.619Z,18.38
2018-05-24T21:34:03.098Z,18.32
2018-05-24T21:36:30.760Z,18.31
2018-05-24T21:38:58.338Z,18.39
2018-05-24T21:41:25.823Z,18.61
2018-05-24T21:43:53.306Z,18.57
2018-05-24T21:46:21.324Z,18.61
2018-05-24T21:48:48.939Z,18.61
2018-05-24T21:51:16.552Z,18.61
2018-05-24T21:53:44.275Z,18.75
2018-05-24T21:56:12.407Z,18.61
2018-05-24T21:58:39.894Z,18.50
2018-05-24T22:01:07.569Z,18.46
2018-05-24T22:03:35.085Z,18.51
2018-05-24T22:06:02.873Z,18.69
2018-05-24T22:08:30.630Z,18.68
2018-05-24T22:20:38.188Z,18.38
2018-05-24T22:23:05.717Z,18.37
2018-05-24T22:25:33.238Z,18.53
2018-05-24T22:28:00.767Z,18.64
2018-05-24T22:30:28.258Z,18.59
2018-05-24T22:32:55.749Z,18.48
2018-05-24T22:35:23.264Z,18.44
2018-05-24T22:37:50.767Z,18.53
2018-05-24T22:40:18.312Z,18.46
2018-05-24T22:42:45.942Z,18.42
2018-05-24T22:45:13.401Z,18.38
2018-05-24T22:47:40.902Z,18.51
2018-05-24T22:50:10.644Z,18.71
2018-05-24T22:52:38.317Z,18.56
2018-05-24T22:55:06.063Z,18.48
2018-05-24T22:57:33.608Z,18.41
2018-05-24T23:00:01.087Z,18.41
2018-05-24T23:02:28.545Z,18.35
2018-05-24T23:04:56.032Z,18.35
2018-05-24T23:07:23.533Z,18.42
2018-05-24T23:09:51.019Z,18.39
2018-05-24T23:12:18.519Z,18.39
2018-05-24T23:14:45.982Z,18.32
2018-05-24T23:17:13.578Z,18.32
2018-05-24T23:19:41.069Z,18.34
2018-05-24T23:22:08.642Z,18.36
2018-05-24T23:24:36.097Z,18.43
2018-05-24T23:27:03.767Z,18.45
2018-05-24T23:29:31.974Z,18.43
2018-05-24T23:31:59.538Z,18.41
2018-05-24T23:34:27.064Z,18.39
2018-05-24T23:36:54.545Z,18.43
2018-05-24T23:39:22.055Z,18.46
2018-05-24T23:41:49.643Z,18.54
2018-05-24T23:44:17.132Z,18.65
2018-05-24T23:46:44.934Z,18.58
2018-05-24T23:49:12.449Z,18.48
2018-05-24T23:51:39.950Z,18.47
2018-05-24T23:54:07.654Z,18.44
2018-05-24T23:56:36.278Z,18.41
2018-05-24T23:59:03.809Z,18.41
